createdAt,value
2022-12-11T00:00:30.742Z,77.00
2022-12-11T00:02:57.832Z,83.95
2022-12-11T00:05:25.096Z,75.15
2022-12-11T00:07:51.953Z,74.68
2022-12-11T00:10:21.321Z,75.90
2022-12-11T00:12:52.793Z,75.18
2022-12-11T00:15:20.136Z,91.45
2022-12-11T00:17:48.328Z,82.47
2022-12-11T00:20:17.893Z,82.30
2022-12-11T00:22:49.263Z,77.47
2022-12-11T00:25:18.925Z,71.60
2022-12-11T00:27:55.077Z,62.35
2022-12-11T00:30:25.850Z,86.32
2022-12-11T00:32:57.778Z,79.55
2022-12-11T00:35:37.669Z,72.93
2022-12-11T00:38:05.147Z,69.68
2022-12-11T00:40:37.857Z,80.03
2022-12-11T00:43:06.444Z,74.85
2022-12-11T00:45:43.077Z,69.80
2022-12-11T00:48:13.810Z,84.95
2022-12-11T00:50:43.263Z,74.53
2022-12-11T00:53:11.112Z,82.30
2022-12-11T00:55:58.275Z,84.88
2022-12-11T00:58:28.574Z,81.65
2022-12-11T01:01:01.545Z,84.63
2022-12-11T01:03:29.752Z,74.85
2022-12-11T01:05:57.985Z,70.43
2022-12-11T01:08:24.997Z,74.45
2022-12-11T01:10:55.139Z,62.35
2022-12-11T01:13:23.052Z,59.92
2022-12-11T01:15:50.123Z,67.70
2022-12-11T01:18:18.712Z,78.70
2022-12-11T01:21:02.889Z,65.22
2022-12-11T01:23:30.183Z,71.32
2022-12-11T01:25:57.175Z,74.05
2022-12-11T01:28:26.208Z,66.55
2022-12-11T01:30:55.894Z,65.82
2022-12-11T01:33:23.392Z,74.22
2022-12-11T01:35:51.590Z,70.72
2022-12-11T01:38:21.934Z,67.35
2022-12-11T01:40:51.814Z,66.75
2022-12-11T01:43:22.697Z,73.35
2022-12-11T01:45:50.478Z,70.70
2022-12-11T01:48:30.193Z,61.33
2022-12-11T01:51:01.900Z,81.70
2022-12-11T01:53:44.845Z,66.05
2022-12-11T01:56:12.812Z,66.22
2022-12-11T01:58:44.838Z,63.03
2022-12-11T02:01:19.332Z,64.22
2022-12-11T02:03:46.856Z,65.63
2022-12-11T02:06:42.219Z,59.70
2022-12-11T02:09:19.017Z,67.25
2022-12-11T02:12:05.481Z,56.45
2022-12-11T02:15:04.002Z,59.28
2022-12-11T02:17:48.142Z,59.33
2022-12-11T02:20:52.997Z,61.70
2022-12-11T02:23:38.640Z,60.50
2022-12-11T02:26:14.869Z,57.65
2022-12-11T02:28:56.442Z,56.78
2022-12-11T02:31:37.584Z,61.92
2022-12-11T02:34:21.169Z,62.90
2022-12-11T02:37:02.824Z,55.50
2022-12-11T02:39:31.556Z,60.80
2022-12-11T02:42:03.900Z,56.70
2022-12-11T02:44:34.289Z,62.17
2022-12-11T02:47:04.389Z,53.60
2022-12-11T02:49:34.872Z,55.05
2022-12-11T02:52:06.946Z,52.40
2022-12-11T02:54:39.342Z,55.88
2022-12-11T02:57:15.812Z,57.17
2022-12-11T02:59:48.491Z,67.60
2022-12-11T03:02:17.650Z,57.75
2022-12-11T03:04:46.189Z,59.58
2022-12-11T03:07:20.801Z,63.92
2022-12-11T03:09:48.985Z,57.90
2022-12-11T03:12:23.183Z,60.78
2022-12-11T03:14:51.272Z,58.83
2022-12-11T03:17:24.019Z,53.85
2022-12-11T03:20:05.020Z,61.95
2022-12-11T03:22:38.964Z,64.35
2022-12-11T03:25:13.542Z,60.35
2022-12-11T03:27:57.808Z,68.32
2022-12-11T03:30:27.360Z,76.00
2022-12-11T03:33:03.388Z,63.13
2022-12-11T03:35:44.083Z,64.45
2022-12-11T03:38:53.717Z,56.88
2022-12-11T03:41:29.137Z,57.95
2022-12-11T03:43:58.848Z,68.70
2022-12-11T03:46:33.645Z,55.10
2022-12-11T03:49:18.758Z,58.20
2022-12-11T03:51:52.109Z,57.22
2022-12-11T03:54:23.607Z,60.28
2022-12-11T03:56:58.768Z,62.53
2022-12-11T03:59:25.863Z,56.17
2022-12-11T04:04:41.891Z,65.07
2022-12-11T04:07:09.691Z,56.30
2022-12-11T04:09:38.193Z,63.40
2022-12-11T04:12:13.286Z,63.80
2022-12-11T04:15:01.202Z,56.45
2022-12-11T04:17:57.829Z,67.07
2022-12-11T04:20:48.444Z,59.60
2022-12-11T04:23:38.628Z,68.20
2022-12-11T04:26:08.036Z,56.20
2022-12-11T04:28:40.352Z,58.83
2022-12-11T04:31:14.424Z,60.20
2022-12-11T04:33:44.250Z,60.10
2022-12-11T04:36:16.103Z,63.88
2022-12-11T04:38:45.198Z,59.60
2022-12-11T04:41:20.235Z,65.28
2022-12-11T04:43:50.704Z,54.15
2022-12-11T04:46:24.347Z,58.70
2022-12-11T04:48:57.326Z,53.38
2022-12-11T04:51:33.754Z,54.88
2022-12-11T04:54:03.259Z,60.85
2022-12-11T04:56:30.541Z,52.47
2022-12-11T04:58:57.651Z,53.20
2022-12-11T05:01:25.185Z,52.65
2022-12-11T05:03:52.525Z,54.80
2022-12-11T05:06:31.825Z,53.10
2022-12-11T05:09:00.517Z,47.13
2022-12-11T05:11:34.502Z,58.35
2022-12-11T05:14:07.723Z,57.30
2022-12-11T05:16:35.092Z,45.45
2022-12-11T05:19:02.770Z,51.33
2022-12-11T05:21:35.136Z,46.83
2022-12-11T05:24:08.071Z,44.58
2022-12-11T05:26:36.129Z,49.10
2022-12-11T05:29:04.946Z,41.35
2022-12-11T05:31:31.895Z,44.17
2022-12-11T05:33:58.949Z,42.28
2022-12-11T05:36:34.831Z,38.75
2022-12-11T05:39:05.556Z,42.42
2022-12-11T05:41:42.161Z,43.78
2022-12-11T05:44:13.082Z,47.10
2022-12-11T05:46:43.758Z,41.17
2022-12-11T05:49:13.319Z,42.55
2022-12-11T05:51:41.859Z,40.63
2022-12-11T05:54:12.407Z,37.40
2022-12-11T05:56:41.010Z,39.05
2022-12-11T05:59:07.902Z,37.10
2022-12-11T06:01:42.749Z,45.33
2022-12-11T06:04:12.412Z,44.97
2022-12-11T06:06:41.122Z,44.67
2022-12-11T06:09:11.284Z,40.83
2022-12-11T06:11:40.483Z,37.92
2022-12-11T06:14:07.963Z,37.53
2022-12-11T06:16:36.795Z,36.85
2022-12-11T06:19:05.944Z,39.28
2022-12-11T06:21:37.833Z,38.13
2022-12-11T06:24:06.445Z,36.92
2022-12-11T06:26:33.912Z,36.85
2022-12-11T06:29:00.981Z,37.17
2022-12-11T06:31:31.713Z,37.38
2022-12-11T06:37:47.040Z,36.55
2022-12-11T06:40:21.447Z,36.00
2022-12-11T06:45:49.086Z,37.47
2022-12-11T06:48:25.345Z,38.00
2022-12-11T06:59:17.335Z,38.47
2022-12-11T07:01:44.918Z,35.17
2022-12-11T07:07:56.744Z,36.92
2022-12-11T07:10:26.013Z,36.00
2022-12-11T07:12:56.799Z,39.45
2022-12-11T07:15:34.409Z,33.28
2022-12-11T07:18:07.556Z,42.10
2022-12-11T07:20:34.632Z,42.53
2022-12-11T07:23:08.158Z,36.78
2022-12-11T07:25:46.909Z,38.55
2022-12-11T07:28:16.847Z,35.67
2022-12-11T07:30:46.602Z,37.00
2022-12-11T07:33:19.584Z,30.92
2022-12-11T07:35:49.612Z,36.17
2022-12-11T07:38:17.121Z,30.52
2022-12-11T07:40:48.116Z,35.65
2022-12-11T07:43:16.039Z,30.58
2022-12-11T07:45:45.014Z,37.58
2022-12-11T07:48:13.391Z,33.58
2022-12-11T07:50:41.879Z,38.55
2022-12-11T07:53:10.197Z,35.78
2022-12-11T07:55:41.060Z,34.35
2022-12-11T07:58:08.944Z,31.17
2022-12-11T08:00:36.318Z,33.95
2022-12-11T08:03:06.015Z,32.53
2022-12-11T08:05:34.144Z,29.20
2022-12-11T08:08:02.259Z,34.58
2022-12-11T08:10:30.255Z,30.35
2022-12-11T08:12:59.060Z,31.02
2022-12-11T08:15:36.282Z,29.98
2022-12-11T08:18:05.420Z,30.48
2022-12-11T08:20:34.379Z,26.95
2022-12-11T08:23:01.659Z,34.10
2022-12-11T08:25:29.116Z,33.20
2022-12-11T08:27:58.605Z,29.48
2022-12-11T08:30:29.775Z,25.08
2022-12-11T08:32:58.502Z,28.75
2022-12-11T08:36:08.873Z,27.63
2022-12-11T08:38:36.767Z,30.88
2022-12-11T08:41:14.298Z,26.00
2022-12-11T08:43:47.180Z,26.95
2022-12-11T08:46:16.193Z,24.38
2022-12-11T08:48:44.168Z,23.95
2022-12-11T08:51:14.953Z,28.25
2022-12-11T08:53:54.137Z,31.45
2022-12-11T08:56:25.041Z,25.98
2022-12-11T08:58:53.143Z,31.92
2022-12-11T09:01:23.686Z,24.00
2022-12-11T09:03:54.596Z,27.75
2022-12-11T09:06:23.601Z,22.30
2022-12-11T09:08:53.702Z,29.55
2022-12-11T09:11:24.509Z,31.08
2022-12-11T09:14:08.287Z,29.45
2022-12-11T09:17:06.461Z,23.40
2022-12-11T09:19:35.048Z,27.48
2022-12-11T09:22:03.018Z,31.00
2022-12-11T09:24:30.218Z,39.67
2022-12-11T09:26:57.796Z,37.38
2022-12-11T09:29:27.563Z,34.97
2022-12-11T09:31:57.140Z,29.30
2022-12-11T09:34:53.904Z,28.80
2022-12-11T09:37:25.007Z,25.38
2022-12-11T09:40:07.350Z,26.92
2022-12-11T09:43:08.103Z,30.98
2022-12-11T09:45:35.405Z,24.85
2022-12-11T09:48:03.382Z,26.20
2022-12-11T09:50:46.213Z,22.17
2022-12-11T09:53:32.360Z,24.45
2022-12-11T09:56:04.043Z,31.50
2022-12-11T09:59:19.080Z,27.80
2022-12-11T10:02:18.082Z,27.83
2022-12-11T10:05:19.361Z,28.77
2022-12-11T10:08:12.671Z,25.75
2022-12-11T10:11:12.447Z,25.50
2022-12-11T10:14:14.730Z,23.02
2022-12-11T10:16:52.822Z,26.92
2022-12-11T10:19:28.075Z,25.55
2022-12-11T10:21:58.002Z,26.95
2022-12-11T10:25:07.679Z,20.95
2022-12-11T10:27:28.914Z,23.75
2022-12-11T10:30:22.494Z,25.20
2022-12-11T10:33:15.441Z,22.65
2022-12-11T10:35:57.748Z,18.30
2022-12-11T10:38:38.370Z,16.83
2022-12-11T10:41:22.162Z,20.65
2022-12-11T10:43:56.263Z,17.10
2022-12-11T10:46:26.971Z,24.00
2022-12-11T10:48:58.599Z,17.65
2022-12-11T10:51:32.457Z,15.13
2022-12-11T10:54:17.866Z,19.58
2022-12-11T10:56:51.945Z,18.95
2022-12-11T10:59:39.552Z,21.10
2022-12-11T11:02:18.257Z,16.70
2022-12-11T11:04:46.541Z,20.20
2022-12-11T11:07:20.141Z,19.88
2022-12-11T11:09:49.431Z,20.38
2022-12-11T11:12:28.073Z,18.48
2022-12-11T11:15:08.385Z,20.65
2022-12-11T11:17:55.035Z,18.23
2022-12-11T11:20:31.371Z,16.30
2022-12-11T11:23:01.960Z,20.95
2022-12-11T11:25:35.533Z,19.17
2022-12-11T11:28:16.729Z,20.65
2022-12-11T11:31:03.922Z,18.45
2022-12-11T11:33:38.083Z,24.92
2022-12-11T11:36:08.653Z,21.25
2022-12-11T11:38:42.976Z,19.15
2022-12-11T11:41:36.768Z,20.33
2022-12-11T11:44:10.928Z,18.50
2022-12-11T11:46:50.249Z,19.80
2022-12-11T11:49:33.727Z,20.10
2022-12-11T11:54:57.518Z,21.10
2022-12-11T12:03:45.426Z,15.95
2022-12-11T12:09:23.337Z,20.52
2022-12-11T12:12:25.482Z,20.98
2022-12-11T12:15:26.358Z,18.50
2022-12-11T12:18:07.108Z,23.42
2022-12-11T12:24:07.463Z,19.35
2022-12-11T12:26:45.531Z,17.77
2022-12-11T12:29:21.737Z,17.25
2022-12-11T12:35:19.238Z,20.70
2022-12-11T12:42:01.367Z,19.92
2022-12-11T12:44:55.881Z,22.05
2022-12-11T12:47:25.658Z,18.90
2022-12-11T12:50:03.518Z,22.73
2022-12-11T12:52:44.917Z,20.40
2022-12-11T12:55:29.162Z,22.85
2022-12-11T12:58:09.923Z,20.10
2022-12-11T13:03:31.275Z,20.77
2022-12-11T13:06:05.044Z,21.98
2022-12-11T13:08:56.137Z,17.25
2022-12-11T13:11:43.132Z,18.92
2022-12-11T13:14:27.593Z,16.75
2022-12-11T13:17:26.861Z,20.17
2022-12-11T13:20:18.339Z,20.08
2022-12-11T13:23:16.612Z,16.55
2022-12-11T13:25:55.379Z,13.98
2022-12-11T13:28:38.954Z,14.90
2022-12-11T13:31:31.041Z,15.05
2022-12-11T13:34:24.291Z,14.63
2022-12-11T13:36:58.422Z,14.70
2022-12-11T13:39:34.259Z,18.23
2022-12-11T13:42:30.490Z,17.20
2022-12-11T13:45:05.901Z,14.65
2022-12-11T13:47:39.299Z,16.50
2022-12-11T13:50:27.399Z,14.43
2022-12-11T13:52:56.941Z,14.38
2022-12-11T13:55:38.827Z,15.65
2022-12-11T13:58:26.198Z,22.63
2022-12-11T14:01:09.097Z,18.70
2022-12-11T14:03:37.934Z,20.80
2022-12-11T14:08:54.379Z,16.52
2022-12-11T14:11:35.378Z,18.08
2022-12-11T14:14:09.310Z,17.65
2022-12-11T14:16:39.463Z,19.70
2022-12-11T14:19:30.793Z,19.55
2022-12-11T14:22:07.402Z,22.08
2022-12-11T14:24:35.000Z,19.50
2022-12-11T14:27:26.105Z,17.02
2022-12-11T14:29:56.639Z,16.50
2022-12-11T14:32:50.070Z,13.35
2022-12-11T14:35:45.282Z,14.57
2022-12-11T14:38:27.105Z,15.80
2022-12-11T14:41:04.248Z,15.07
2022-12-11T14:44:03.375Z,17.83
2022-12-11T14:47:14.184Z,15.63
2022-12-11T14:49:59.327Z,17.15
2022-12-11T14:52:43.424Z,17.00
2022-12-11T14:55:24.246Z,15.02
2022-12-11T14:58:18.806Z,14.02
2022-12-11T15:01:01.777Z,16.90
2022-12-11T15:03:39.454Z,16.25
2022-12-11T15:06:33.061Z,16.30
2022-12-11T15:09:31.208Z,15.60
2022-12-11T15:12:09.664Z,17.45
2022-12-11T15:14:50.399Z,14.88
2022-12-11T15:17:33.025Z,16.67
2022-12-11T15:20:28.415Z,16.25
2022-12-11T15:23:02.634Z,19.38
2022-12-11T15:28:39.561Z,18.67
2022-12-11T15:31:37.065Z,17.30
2022-12-11T15:34:27.344Z,19.02
2022-12-11T15:37:20.953Z,14.20
2022-12-11T15:39:50.556Z,17.48
2022-12-11T15:42:47.786Z,15.32
2022-12-11T15:45:21.639Z,17.48
2022-12-11T15:47:49.929Z,15.88
2022-12-11T15:51:09.045Z,13.15
2022-12-11T15:53:39.552Z,12.95
2022-12-11T15:56:14.572Z,16.92
2022-12-11T15:58:45.025Z,13.38
2022-12-11T16:01:26.464Z,15.10
2022-12-11T16:04:04.733Z,11.80
2022-12-11T16:06:34.784Z,12.60
2022-12-11T16:09:05.877Z,11.63
2022-12-11T16:11:36.904Z,17.70
2022-12-11T16:14:22.975Z,12.40
2022-12-11T16:16:52.393Z,13.52
2022-12-11T16:19:23.230Z,14.18
2022-12-11T16:21:57.509Z,12.13
2022-12-11T16:24:29.140Z,14.55
2022-12-11T16:26:56.268Z,15.27
2022-12-11T16:29:24.623Z,15.52
2022-12-11T16:31:56.404Z,11.82
2022-12-11T16:34:29.968Z,13.65
2022-12-11T16:37:00.475Z,13.32
2022-12-11T16:39:29.531Z,16.30
2022-12-11T16:42:00.272Z,14.38
2022-12-11T16:44:30.240Z,12.20
2022-12-11T16:46:59.358Z,14.55
2022-12-11T16:49:28.655Z,14.80
2022-12-11T16:52:02.412Z,14.02
2022-12-11T16:57:22.125Z,13.80
2022-12-11T16:59:51.819Z,14.55
2022-12-11T17:02:38.370Z,15.93
2022-12-11T17:05:10.926Z,13.20
2022-12-11T17:07:38.969Z,16.95
2022-12-11T17:10:17.428Z,17.48
2022-12-11T17:12:54.322Z,14.00
2022-12-11T17:18:39.005Z,17.52
2022-12-11T17:21:13.619Z,18.45
2022-12-11T17:23:41.610Z,18.63
2022-12-11T17:26:14.501Z,22.77
2022-12-11T17:28:41.474Z,21.10
2022-12-11T17:31:13.062Z,19.60
2022-12-11T17:33:42.055Z,18.25
2022-12-11T17:36:14.375Z,14.68
2022-12-11T17:38:45.942Z,15.57
2022-12-11T17:41:29.239Z,18.27
2022-12-11T17:43:58.878Z,20.58
2022-12-11T17:46:27.655Z,22.42
2022-12-11T17:48:59.579Z,19.83
2022-12-11T17:51:26.791Z,14.30
2022-12-11T17:53:56.967Z,24.77
2022-12-11T17:56:24.412Z,18.33
2022-12-11T17:58:55.768Z,21.55
2022-12-11T18:01:32.108Z,21.65
2022-12-11T18:04:02.406Z,24.80
2022-12-11T18:06:36.315Z,19.25
2022-12-11T18:09:06.329Z,20.80
2022-12-11T18:11:37.258Z,21.02
2022-12-11T18:14:05.499Z,18.17
2022-12-11T18:16:42.277Z,21.33
2022-12-11T18:19:09.652Z,25.98
2022-12-11T18:21:43.622Z,25.05
2022-12-11T18:26:57.852Z,27.05
2022-12-11T18:29:29.033Z,22.58
2022-12-11T18:31:59.062Z,29.00
2022-12-11T18:34:28.327Z,26.60
2022-12-11T18:36:59.596Z,29.23
2022-12-11T18:39:28.206Z,23.88
2022-12-11T18:42:24.339Z,26.42
2022-12-11T18:44:44.389Z,25.58
2022-12-11T18:47:12.559Z,27.45
2022-12-11T18:49:40.636Z,27.42
2022-12-11T18:52:08.176Z,26.15
2022-12-11T18:54:37.022Z,28.40
2022-12-11T18:57:05.963Z,31.10
2022-12-11T18:59:33.371Z,27.95
2022-12-11T19:02:02.148Z,25.92
2022-12-11T19:04:29.074Z,29.63
2022-12-11T19:06:58.941Z,29.08
2022-12-11T19:09:26.579Z,24.70
2022-12-11T19:11:57.107Z,26.13
2022-12-11T19:14:27.326Z,32.53
2022-12-11T19:16:58.189Z,33.17
2022-12-11T19:19:27.326Z,28.95
2022-12-11T19:21:57.775Z,31.13
2022-12-11T19:24:31.645Z,28.58
2022-12-11T19:26:58.905Z,23.40
2022-12-11T19:29:35.269Z,26.73
2022-12-11T19:32:04.911Z,28.08
2022-12-11T19:34:32.648Z,29.40
2022-12-11T19:36:59.571Z,26.45
2022-12-11T19:39:27.399Z,30.83
2022-12-11T19:41:57.382Z,25.52
2022-12-11T19:44:27.387Z,33.42
2022-12-11T19:46:58.024Z,30.52
2022-12-11T19:49:31.752Z,30.10
2022-12-11T19:51:59.453Z,29.40
2022-12-11T19:54:27.717Z,23.63
2022-12-11T19:57:00.091Z,28.00
2022-12-11T19:59:27.123Z,27.00
2022-12-11T20:01:55.336Z,25.98
2022-12-11T20:11:28.858Z,25.00
2022-12-11T20:34:25.737Z,31.05
2022-12-11T20:40:45.558Z,28.55
2022-12-11T20:43:46.789Z,31.92
2022-12-11T20:46:29.300Z,31.25
2022-12-11T20:55:17.746Z,25.70
2022-12-11T21:04:35.995Z,30.88
2022-12-11T21:10:21.150Z,26.38
2022-12-11T21:15:44.835Z,33.25
2022-12-11T21:18:18.032Z,33.22
2022-12-11T21:21:00.836Z,29.45
2022-12-11T21:29:31.370Z,34.22
2022-12-11T21:32:24.232Z,32.22
2022-12-11T21:35:29.374Z,31.15
2022-12-11T21:38:20.220Z,28.27
2022-12-11T21:43:42.814Z,28.17
2022-12-11T21:46:28.466Z,30.88
2022-12-11T21:48:58.600Z,31.00
2022-12-11T21:51:41.362Z,29.75
2022-12-11T21:54:38.592Z,29.67
2022-12-11T21:57:38.915Z,34.30
2022-12-11T22:03:16.636Z,32.95
2022-12-11T22:05:48.423Z,30.80
2022-12-11T22:11:38.246Z,32.33
2022-12-11T22:14:08.644Z,27.63
2022-12-11T22:16:37.324Z,31.25
2022-12-11T22:19:05.804Z,30.95
2022-12-11T22:21:33.411Z,30.83
2022-12-11T22:24:05.573Z,32.03
2022-12-11T22:26:35.887Z,33.47
2022-12-11T22:29:03.351Z,29.48
2022-12-11T22:31:30.462Z,34.70
2022-12-11T22:33:59.868Z,28.30
2022-12-11T22:36:29.106Z,31.98
2022-12-11T22:39:00.354Z,34.08
2022-12-11T22:41:30.015Z,28.98
2022-12-11T22:44:01.290Z,28.92
2022-12-11T22:46:33.752Z,31.45
2022-12-11T22:51:43.241Z,29.75
2022-12-11T22:57:03.204Z,33.47
2022-12-11T22:59:34.519Z,35.25
2022-12-11T23:02:02.315Z,38.10
2022-12-11T23:04:33.537Z,35.70
2022-12-11T23:07:05.181Z,35.72
2022-12-11T23:09:33.011Z,35.45
2022-12-11T23:12:05.787Z,34.10
2022-12-11T23:14:32.734Z,36.10
2022-12-11T23:17:02.753Z,41.13
2022-12-11T23:19:34.111Z,35.78
2022-12-11T23:22:05.530Z,29.77
2022-12-11T23:24:33.924Z,30.27
2022-12-11T23:27:14.287Z,39.90
2022-12-11T23:29:50.990Z,33.30
2022-12-11T23:32:18.604Z,37.58
2022-12-11T23:34:49.629Z,32.03
2022-12-11T23:37:22.095Z,37.63
2022-12-11T23:39:52.968Z,39.80
2022-12-11T23:42:20.281Z,38.25
2022-12-11T23:44:50.795Z,34.38
2022-12-11T23:47:23.398Z,42.17
2022-12-11T23:49:50.730Z,36.85
2022-12-11T23:52:23.233Z,38.10
2022-12-11T23:54:50.216Z,42.17
2022-12-11T23:57:18.255Z,32.08
2022-12-11T23:59:45.274Z,38.38
